Time;durP1;ratioP1;P1;durP2;ratioP2;P2;SDS_P1;SDS_P2;PMS_P1;PMS_P2;Temp;Humidity;BMP_temperature;BMP_pressure;BME280_temperature;BME280_humidity;BME280_pressure;Samples;Min_cycle;Max_cycle;Signal;HPM_P1;HPM_P2
2021/01/26 00:01:00;;;;;;;46.10;26.38;;;1.10;99.90;;;0.76;82.11;101708.50;4102570;28;20086;-74
2021/01/26 00:03:02;;;;;;;47.10;27.08;;;1.10;99.90;;;0.78;81.45;101701.47;4118652;28;20035;-74
2021/01/26 00:05:04;;;;;;;38.95;22.85;;;1.10;99.90;;;0.72;81.35;101696.53;4118439;28;20402;-74
2021/01/26 00:07:05;;;;;;;42.55;26.13;;;1.10;99.90;;;0.59;82.06;101695.44;4134418;28;20030;-74
2021/01/26 00:09:06;;;;;;;39.00;24.45;;;1.10;99.90;;;0.59;82.17;101690.25;4118556;28;20027;-74
2021/01/26 00:11:08;;;;;;;41.20;26.38;;;1.00;99.90;;;0.63;82.41;101702.16;4119703;28;20039;-74
2021/01/26 00:13:10;;;;;;;45.90;26.15;;;1.00;99.90;;;0.50;82.61;101696.69;4118429;28;20026;-74
2021/01/26 00:15:11;;;;;;;36.05;21.55;;;1.00;99.90;;;0.59;82.35;101699.78;4134693;28;20209;-74
2021/01/26 00:17:12;;;;;;;32.47;20.52;;;0.90;99.90;;;0.53;82.41;101690.53;4134526;28;20030;-74
2021/01/26 00:19:13;;;;;;;39.60;23.98;;;0.90;99.90;;;0.57;82.69;101699.84;4134491;28;20041;-74
2021/01/26 00:21:14;;;;;;;43.60;26.15;;;0.90;99.90;;;0.51;82.41;101687.13;4118074;28;20486;-74
2021/01/26 00:23:17;;;;;;;44.28;24.55;;;0.90;99.90;;;0.43;82.49;101697.03;4119722;28;20031;-74
2021/01/26 00:25:30;;;;;;;43.38;26.58;;;0.90;99.90;;;0.42;82.86;101696.19;4118436;28;20102;-74
2021/01/26 00:27:31;;;;;;;42.05;25.40;;;0.90;99.90;;;0.49;81.86;101694.16;4134215;28;20038;-74
2021/01/26 00:29:32;;;;;;;34.63;20.42;;;0.80;99.90;;;0.49;82.39;101705.38;4119603;28;20032;-74
2021/01/26 00:31:33;;;;;;;31.35;19.98;;;0.80;99.90;;;0.55;82.07;101699.06;4118487;28;20077;-74
2021/01/26 00:33:34;;;;;;;31.48;20.10;;;0.80;99.90;;;0.41;82.48;101698.84;4118296;28;20486;-74
2021/01/26 00:35:35;;;;;;;30.98;21.63;;;0.80;99.90;;;0.31;83.00;101700.16;4118444;28;20026;-74
2021/01/26 00:37:36;;;;;;;34.50;22.48;;;0.80;99.90;;;0.43;82.24;101705.66;4106514;28;20041;-74
2021/01/26 00:39:36;;;;;;;32.22;21.77;;;0.80;99.90;;;0.41;82.70;101702.31;4118424;28;20046;-74
2021/01/26 00:41:37;;;;;;;34.00;22.50;;;0.80;99.90;;;0.37;82.90;101702.47;4119402;28;20038;-74
2021/01/26 00:43:38;;;;;;;32.90;19.85;;;0.80;99.90;;;0.38;82.70;101714.56;4119631;28;20027;-74
2021/01/26 00:45:40;;;;;;;34.08;21.60;;;0.80;99.90;;;0.42;83.42;101727.31;4119660;28;20034;-74
2021/01/26 00:47:41;;;;;;;35.85;20.77;;;1.10;99.90;;;0.48;82.95;101721.00;4118495;28;20546;-74
2021/01/26 00:49:42;;;;;;;29.13;20.08;;;0.80;99.90;;;0.54;82.39;101720.75;4118364;28;20113;-74
2021/01/26 00:51:43;;;;;;;39.28;23.95;;;0.80;99.90;;;0.44;82.58;101722.94;4102039;28;20533;-74
2021/01/26 00:53:44;;;;;;;53.42;25.20;;;0.80;99.90;;;0.35;83.57;101722.47;4119425;28;20030;-74
2021/01/26 00:55:44;;;;;;;80.82;32.45;;;0.80;99.90;;;0.41;83.59;101724.81;4118239;28;20434;-74
2021/01/26 00:57:46;;;;;;;54.50;27.27;;;0.80;99.90;;;0.45;82.95;101723.75;4134497;28;20034;-74
2021/01/26 00:59:50;;;;;;;35.03;21.40;;;0.80;99.90;;;0.53;82.53;101724.25;4119504;28;20031;-74
2021/01/26 01:01:53;;;;;;;38.40;23.73;;;0.80;99.90;;;0.51;82.47;101718.28;4118148;28;20069;-74
2021/01/26 01:03:54;;;;;;;47.05;25.13;;;0.80;99.90;;;0.49;82.51;101725.31;4119826;28;20054;-74
2021/01/26 01:05:55;;;;;;;66.18;30.38;;;0.80;99.90;;;0.31;83.09;101713.13;4102264;28;20023;-74
2021/01/26 01:07:56;;;;;;;60.58;31.38;;;0.80;99.90;;;0.31;84.05;101715.72;4119478;28;20031;-74
2021/01/26 01:09:57;;;;;;;62.40;29.90;;;0.80;99.90;;;0.43;83.37;101702.22;4118274;28;20110;-74
2021/01/26 01:11:58;;;;;;;54.38;27.23;;;0.80;99.90;;;0.44;82.08;101694.38;4118308;28;20019;-74
2021/01/26 01:13:59;;;;;;;53.17;26.63;;;0.80;99.90;;;0.50;82.91;101706.22;4119510;28;20027;-74
2021/01/26 01:16:00;;;;;;;57.28;31.35;;;1.00;99.90;;;0.46;83.15;101709.88;4118147;28;20165;-74
2021/01/26 01:18:01;;;;;;;52.08;27.08;;;0.90;99.90;;;0.46;83.15;101691.69;4118180;28;20037;-74
2021/01/26 01:20:06;;;;;;;52.88;27.40;;;0.90;99.90;;;0.57;82.68;101698.09;4118305;28;20126;-74
2021/01/26 01:22:06;;;;;;;45.85;25.88;;;0.90;99.90;;;0.54;83.00;101705.16;4133876;28;20025;-74
2021/01/26 01:24:09;;;;;;;35.20;22.23;;;0.90;99.90;;;0.52;83.09;101700.06;4134295;28;20513;-74
2021/01/26 01:26:10;;;;;;;32.28;21.10;;;0.90;99.90;;;0.55;83.12;101704.25;4134011;28;20031;-74
2021/01/26 01:28:11;;;;;;;29.70;19.67;;;0.90;99.90;;;0.36;83.55;101691.25;4119475;28;20026;-74
2021/01/26 01:30:25;;;;;;;24.92;19.45;;;0.30;99.90;;;0.44;83.78;101703.91;4118095;28;20019;-74
2021/01/26 01:32:26;;;;;;;33.57;21.03;;;0.80;99.90;;;0.50;82.57;101704.47;4119168;28;20023;-74
2021/01/26 01:34:27;;;;;;;29.55;20.55;;;0.90;99.90;;;0.53;82.39;101709.53;4122365;28;20314;-74
2021/01/26 01:36:28;;;;;;;33.10;21.42;;;0.80;99.90;;;0.48;82.71;101713.22;4120913;28;20398;-74
2021/01/26 01:38:29;;;;;;;37.05;24.20;;;0.90;99.90;;;0.48;82.44;101713.22;4136973;28;20037;-74
2021/01/26 01:40:34;;;;;;;43.28;25.65;;;0.80;99.90;;;0.39;82.91;101718.81;4120788;28;20074;-74
2021/01/26 01:42:35;;;;;;;34.90;22.85;;;0.80;99.90;;;0.24;83.40;101719.53;4120767;28;20033;-74
2021/01/26 01:44:36;;;;;;;44.17;24.92;;;0.80;99.90;;;0.36;82.83;101729.38;4122222;28;20454;-74
2021/01/26 01:46:47;;;;;;;35.50;21.92;;;0.70;99.90;;;0.43;82.87;101733.34;4120899;28;20105;-74
2021/01/26 01:48:49;;;;;;;36.15;22.00;;;0.80;99.90;;;0.13;83.40;101714.78;4136346;28;20026;-75
2021/01/26 01:51:06;;;;;;;33.53;21.50;;;0.80;99.90;;;0.36;83.76;101729.38;4104364;29;20038;-75
2021/01/26 01:53:24;;;;;;;27.63;18.65;;;0.70;99.90;;;0.47;83.60;101733.16;4135340;28;20035;-75
2021/01/26 01:55:28;;;;;;;29.42;18.23;;;0.70;99.90;;;0.38;83.98;101724.94;4121519;28;20054;-74
2021/01/26 01:57:38;;;;;;;24.67;19.20;;;0.70;99.90;;;0.40;83.82;101726.56;4120828;28;20045;-74
2021/01/26 01:59:45;;;;;;;25.65;18.30;;;0.70;99.90;;;0.34;84.36;101731.16;4120700;28;20055;-74
2021/01/26 02:01:49;;;;;;;21.50;16.40;;;0.80;99.90;;;0.37;83.94;101736.22;4120271;28;20026;-75
2021/01/26 02:03:54;;;;;;;21.83;16.10;;;0.80;99.90;;;0.23;84.53;101735.97;4120784;28;20031;-75
2021/01/26 02:05:58;;;;;;;19.75;15.32;;;0.80;99.90;;;0.36;83.72;101745.75;4120219;28;20037;-75
2021/01/26 02:08:00;;;;;;;22.90;15.52;;;0.80;99.90;;;0.43;83.64;101756.72;4120541;28;20035;-74
2021/01/26 02:10:01;;;;;;;20.00;15.85;;;0.80;99.90;;;0.50;83.29;101768.53;4104480;28;20030;-74
2021/01/26 02:12:04;;;;;;;22.33;16.20;;;0.80;99.90;;;0.44;83.50;101769.66;4136541;28;20162;-74
2021/01/26 02:14:05;;;;;;;24.35;15.90;;;0.80;99.90;;;0.36;83.25;101768.28;4120368;28;20034;-74
2021/01/26 02:16:06;;;;;;;20.50;15.65;;;0.80;99.90;;;0.37;83.48;101781.19;4120343;28;20050;-74
2021/01/26 02:18:40;;;;;;;22.30;15.05;;;0.80;99.90;;;0.48;83.46;101778.97;4136330;28;20034;-74
2021/01/26 02:21:08;;;;;;;20.52;14.95;;;0.80;99.90;;;0.54;82.44;101775.25;4121703;28;20078;-74
2021/01/26 02:23:21;;;;;;;21.08;14.00;;;0.90;99.90;;;0.52;83.09;101779.69;4120095;28;20062;-74
2021/01/26 02:25:47;;;;;;;22.17;15.77;;;0.90;99.90;;;0.44;83.58;101777.44;4121507;28;20062;-75
2021/01/26 02:28:12;;;;;;;24.23;16.05;;;0.90;99.90;;;0.49;84.27;101777.22;4121524;28;20027;-75
2021/01/26 02:30:49;;;;;;;;;;;1.00;99.90;;;0.56;84.57;101783.84;4121947;28;20110;-75
2021/01/26 02:32:59;;;;;;;21.55;14.35;;;1.00;99.90;;;0.65;83.98;101774.78;4121474;28;19942;-75
2021/01/26 02:35:20;;;;;;;21.33;15.88;;;1.20;99.90;;;0.70;83.75;101770.22;4121360;28;20038;-74
2021/01/26 02:37:46;;;;;;;18.75;14.88;;;1.20;99.90;;;0.89;83.38;101769.38;4119690;28;20035;-75
2021/01/26 02:40:16;;;;;;;21.35;16.00;;;1.30;99.90;;;1.04;82.83;101786.84;4120168;28;20027;-75
2021/01/26 02:42:52;;;;;;;19.40;14.52;;;1.40;99.90;;;0.94;83.80;101780.38;4121115;28;20031;-74
2021/01/26 02:45:27;;;;;;;21.75;14.45;;;1.20;99.90;;;0.93;83.44;101788.22;4088343;28;20046;-75
2021/01/26 02:47:57;;;;;;;21.35;14.85;;;1.50;99.90;;;1.24;81.91;101793.72;4135909;28;20536;-74
2021/01/26 02:50:29;;;;;;;22.58;17.85;;;1.60;99.90;;;1.21;81.37;101793.84;4105397;28;20046;-74
2021/01/26 02:52:42;;;;;;;20.17;14.38;;;1.80;99.90;;;1.22;81.75;101784.31;4128202;28;20114;-74
2021/01/26 02:55:30;;;;;;;21.42;14.35;;;1.70;99.90;;;1.21;82.28;101770.47;4135582;28;20026;-75
2021/01/26 02:58:03;;;;;;;17.92;13.57;;;1.70;99.90;;;1.16;83.03;101762.06;4106598;28;20069;-74
2021/01/26 03:00:20;;;;;;;19.17;15.02;;;1.70;99.90;;;1.34;81.88;101762.94;4119442;28;20058;-75
2021/01/26 03:02:30;;;;;;;23.63;16.35;;;1.70;99.90;;;1.28;81.54;101758.03;4120419;28;20414;-74
2021/01/26 03:05:08;;;;;;;19.63;14.82;;;1.70;99.90;;;1.20;82.16;101768.78;4120021;28;20514;-74
2021/01/26 03:07:12;;;;;;;19.23;14.93;;;1.70;99.90;;;1.19;81.97;101763.66;4119215;28;20031;-74
2021/01/26 03:09:28;;;;;;;16.92;14.35;;;1.60;99.90;;;1.11;81.75;101758.81;4135514;28;20421;-75
2021/01/26 03:11:47;;;;;;;20.52;15.65;;;1.60;99.90;;;0.93;82.36;101752.69;4119627;28;20531;-74
2021/01/26 03:13:57;;;;;;;18.88;14.75;;;1.50;99.90;;;0.96;83.25;101772.50;4119708;28;20038;-74
2021/01/26 03:16:11;;;;;;;17.60;15.20;;;1.50;99.90;;;1.18;81.02;101765.41;4119599;28;20031;-75
2021/01/26 03:18:16;;;;;;;21.10;15.20;;;1.50;99.90;;;1.27;80.12;101767.59;4119441;28;20157;-74
2021/01/26 03:20:40;;;;;;;21.58;14.15;;;1.60;99.90;;;1.03;80.53;101774.75;4119464;28;20102;-75
2021/01/26 03:22:46;;;;;;;19.85;14.80;;;1.50;99.90;;;0.86;82.06;101768.66;4119310;28;20034;-74
2021/01/26 03:24:53;;;;;;;22.70;15.75;;;1.40;99.90;;;0.79;83.27;101770.66;4103686;28;20074;-74
2021/01/26 03:26:54;;;;;;;22.27;16.52;;;1.30;99.90;;;0.95;82.41;101766.50;4135465;28;20023;-75
2021/01/26 03:29:00;;;;;;;20.77;16.08;;;1.30;99.90;;;0.99;82.57;101772.34;4119514;28;20031;-74
2021/01/26 03:31:02;;;;;;;21.30;15.80;;;1.30;99.90;;;0.79;83.46;101764.63;4135201;28;20035;-75
2021/01/26 03:33:20;;;;;;;17.55;14.75;;;1.30;99.90;;;0.88;82.88;101759.88;4119633;28;20133;-74
2021/01/26 03:35:21;;;;;;;18.73;14.80;;;1.30;99.90;;;0.98;82.31;101749.91;4135413;28;20529;-74
2021/01/26 03:37:23;;;;;;;20.17;15.23;;;1.30;99.90;;;0.85;82.84;101759.16;4119005;28;20407;-74
2021/01/26 03:39:23;;;;;;;20.42;15.18;;;1.30;99.90;;;0.85;82.04;101767.81;4135441;28;20030;-74
2021/01/26 03:41:24;;;;;;;20.33;15.27;;;1.20;99.90;;;0.72;82.03;101752.84;4120352;28;20089;-74
2021/01/26 03:43:26;;;;;;;19.83;14.35;;;1.20;99.90;;;0.69;82.24;101769.38;4120283;28;20113;-74
2021/01/26 03:45:27;;;;;;;21.30;15.95;;;1.20;99.90;;;0.65;82.55;101772.19;4119038;28;20082;-74
2021/01/26 03:48:05;;;;;;;17.60;14.70;;;1.20;99.90;;;0.62;82.82;101775.78;4135197;28;20019;-74
2021/01/26 03:50:23;;;;;;;19.52;14.60;;;1.10;99.90;;;0.68;83.05;101770.31;4120221;28;20027;-74
2021/01/26 03:52:44;;;;;;;19.40;15.10;;;1.10;99.90;;;0.67;82.75;101767.78;4110769;28;20029;-75
2021/01/26 03:54:54;;;;;;;18.00;15.15;;;1.10;99.90;;;0.77;82.17;101775.09;4118488;28;20027;-74
2021/01/26 03:57:37;;;;;;;21.90;15.35;;;1.10;99.90;;;0.83;81.91;101777.44;4119026;28;20035;-74
2021/01/26 04:00:03;;;;;;;21.00;14.93;;;1.10;99.90;;;0.75;82.75;101766.50;4118876;28;20050;-74
2021/01/26 04:02:14;;;;;;;19.52;14.55;;;1.20;99.90;;;0.71;83.58;101757.19;4118867;28;20458;-74
2021/01/26 04:04:44;;;;;;;19.98;13.63;;;1.20;99.90;;;0.81;83.32;101755.84;4118957;28;20114;-74
2021/01/26 04:06:57;;;;;;;22.90;15.88;;;1.20;99.90;;;0.69;84.08;101746.00;4118588;28;20074;-74
2021/01/26 04:09:14;;;;;;;20.35;14.27;;;1.20;99.90;;;0.54;84.80;101749.28;4118968;28;20527;-75
2021/01/26 04:11:38;;;;;;;22.85;15.48;;;1.20;99.90;;;0.73;85.26;101750.16;4119064;28;20113;-75
2021/01/26 04:13:57;;;;;;;22.60;16.42;;;1.20;99.90;;;0.73;83.98;101729.41;4108793;28;20478;-74
2021/01/26 04:16:02;;;;;;;24.17;17.20;;;1.20;99.90;;;0.63;84.30;101725.53;4118874;28;20050;-74
2021/01/26 04:18:05;;;;;;;24.83;16.70;;;1.20;99.90;;;0.76;84.55;101737.06;4118737;28;20372;-74
2021/01/26 04:20:24;;;;;;;21.58;15.98;;;1.10;99.90;;;0.84;83.50;101731.50;4118805;28;20064;-74
2021/01/26 04:22:25;;;;;;;22.08;16.67;;;1.30;99.90;;;0.84;83.44;101734.94;4118866;28;20477;-74
2021/01/26 04:24:34;;;;;;;20.17;15.10;;;1.40;99.90;;;0.77;83.57;101730.97;4118499;28;20046;-74
2021/01/26 04:26:35;;;;;;;20.23;15.45;;;1.30;99.90;;;0.72;83.58;101738.09;4119961;28;20106;-74
2021/01/26 04:28:36;;;;;;;17.85;14.18;;;1.30;99.90;;;0.67;84.11;101745.25;4118613;28;20019;-74
2021/01/26 04:30:38;;;;;;;21.60;14.43;;;1.20;99.90;;;0.61;84.71;101729.94;4134679;28;20476;-74
2021/01/26 04:32:39;;;;;;;18.67;14.27;;;1.20;99.90;;;0.79;83.86;101736.91;4134657;28;20032;-74
2021/01/26 04:34:40;;;;;;;17.60;13.82;;;1.20;99.90;;;0.69;83.68;101724.44;4118683;28;20035;-74
2021/01/26 04:36:41;;;;;;;19.58;14.32;;;1.30;99.90;;;0.75;83.93;101743.16;4134718;28;20096;-74
2021/01/26 04:38:42;;;;;;;21.88;15.48;;;1.30;99.90;;;0.81;83.82;101735.06;4118596;28;20027;-74
2021/01/26 04:40:43;;;;;;;20.58;14.38;;;1.30;99.90;;;0.90;83.19;101737.25;4134352;28;20036;-75
2021/01/26 04:42:45;;;;;;;17.58;13.57;;;1.30;99.90;;;0.81;83.07;101724.69;4134630;28;20085;-74
2021/01/26 04:44:58;;;;;;;18.25;13.70;;;1.30;99.90;;;0.83;83.59;101735.03;4118579;28;20073;-74
2021/01/26 04:47:12;;;;;;;20.48;14.73;;;1.30;99.90;;;0.81;83.89;101732.47;4134564;28;20122;-74
2021/01/26 04:49:28;;;;;;;19.50;14.20;;;1.30;99.90;;;0.70;83.45;101706.16;4119844;28;20441;-74
2021/01/26 04:51:47;;;;;;;19.08;14.25;;;1.20;99.90;;;0.72;83.56;101713.91;4117865;28;20026;-74
2021/01/26 04:54:26;;;;;;;17.10;12.48;;;1.20;99.90;;;0.82;83.40;101726.38;4118450;28;20037;-75
2021/01/26 04:57:10;;;;;;;19.73;13.43;;;1.20;99.90;;;0.76;83.66;101712.84;4118150;28;20078;-74
2021/01/26 04:59:33;;;;;;;18.70;14.23;;;1.00;99.90;;;0.80;84.03;101704.84;4108814;28;20034;-75
2021/01/26 05:02:04;;;;;;;18.17;13.80;;;1.20;99.90;;;0.71;83.87;101686.25;4118205;28;20027;-75
2021/01/26 05:04:15;;;;;;;17.52;13.27;;;1.20;99.90;;;0.70;84.31;101677.59;4131729;28;20038;-74
2021/01/26 05:06:19;;;;;;;17.90;12.20;;;1.20;99.90;;;0.62;84.85;101673.69;4118052;28;20023;-75
2021/01/26 05:08:37;;;;;;;20.00;13.57;;;1.10;99.90;;;0.88;83.93;101675.91;4120920;28;20038;-74
2021/01/26 05:10:48;;;;;;;17.60;13.85;;;1.20;99.90;;;1.03;83.18;101670.84;4121581;28;20042;-75
2021/01/26 05:13:02;;;;;;;22.98;14.02;;;1.30;99.90;;;1.05;82.42;101663.81;4105551;28;20035;-75
2021/01/26 05:15:07;;;;;;;17.00;13.25;;;1.30;99.90;;;0.85;82.43;101666.50;4121613;28;20054;-75
2021/01/26 05:17:17;;;;;;;17.52;13.85;;;1.30;99.90;;;0.87;82.61;101677.66;4121210;28;20039;-75
2021/01/26 05:19:45;;;;;;;18.10;12.45;;;1.30;99.90;;;0.81;82.93;101683.13;4105413;29;20031;-74
2021/01/26 05:22:15;;;;;;;15.35;13.02;;;1.30;99.90;;;0.79;82.77;101691.91;4123068;28;20050;-75
2021/01/26 05:24:23;;;;;;;19.50;13.10;;;1.10;99.90;;;0.80;83.23;101701.41;4122897;28;20378;-75
2021/01/26 05:26:24;;;;;;;18.15;13.57;;;1.10;99.90;;;0.73;82.80;101692.19;4125005;28;20460;-75
2021/01/26 05:28:25;;;;;;;15.88;12.63;;;1.10;99.90;;;0.60;83.63;101693.69;4122439;28;20054;-75
2021/01/26 05:30:34;;;;;;;16.15;12.80;;;1.00;99.90;;;0.61;83.85;101697.94;4121121;28;20023;-75
2021/01/26 05:32:37;;;;;;;15.88;11.88;;;1.00;99.90;;;0.63;83.24;101706.53;4121168;28;20029;-75
2021/01/26 05:34:41;;;;;;;16.35;11.82;;;1.00;99.90;;;0.68;83.17;101701.97;4122474;28;20081;-75
2021/01/26 05:36:46;;;;;;;17.27;12.10;;;1.00;99.90;;;0.73;82.57;101694.78;4104886;28;20023;-74
2021/01/26 05:38:51;;;;;;;17.05;13.02;;;1.00;99.90;;;0.72;82.43;101688.75;4105189;28;20039;-74
2021/01/26 05:40:57;;;;;;;15.75;12.68;;;1.10;99.90;;;0.66;82.54;101689.03;4122001;28;20039;-74
2021/01/26 05:43:03;;;;;;;15.57;12.55;;;1.10;99.90;;;0.58;82.56;101693.75;4120947;28;20065;-74
2021/01/26 05:45:15;;;;;;;16.25;13.13;;;1.10;99.90;;;0.46;83.58;101668.34;4121140;28;20375;-74
2021/01/26 05:47:22;;;;;;;15.40;12.82;;;1.50;99.90;;;0.61;83.26;101692.75;4120943;28;20407;-75
2021/01/26 05:49:35;;;;;;;15.60;12.52;;;1.10;99.90;;;0.53;84.55;101677.53;4122315;28;20027;-75
2021/01/26 05:51:40;;;;;;;14.73;12.13;;;1.10;99.90;;;0.70;84.17;101668.97;4120536;28;20054;-75
2021/01/26 05:53:42;;;;;;;15.15;12.82;;;1.10;99.90;;;0.65;84.17;101663.16;4120800;28;20110;-75
2021/01/26 05:55:47;;;;;;;19.35;13.38;;;1.20;99.90;;;0.81;84.34;101669.31;4120569;28;20055;-74
2021/01/26 05:57:50;;;;;;;17.20;12.43;;;1.20;99.90;;;0.79;84.39;101677.19;4120918;28;20075;-74
2021/01/26 05:59:51;;;;;;;16.80;11.52;;;1.30;99.90;;;0.81;83.97;101659.75;4120765;28;20090;-74
2021/01/26 06:01:53;;;;;;;16.75;11.63;;;1.30;99.90;;;0.84;83.42;101658.78;4120362;28;20034;-74
2021/01/26 06:04:24;;;;;;;14.43;11.00;;;1.30;99.90;;;0.85;83.73;101656.13;4136837;28;20565;-74
2021/01/26 06:06:25;;;;;;;13.68;11.48;;;1.40;99.90;;;0.82;84.06;101645.03;4120371;28;20027;-74
2021/01/26 06:08:27;;;;;;;15.52;11.40;;;1.70;99.90;;;0.79;84.74;101651.22;4120511;28;20038;-74
2021/01/26 06:10:31;;;;;;;18.75;12.02;;;1.40;99.90;;;0.84;84.57;101644.03;4104696;29;20482;-74
2021/01/26 06:12:32;;;;;;;15.07;10.85;;;1.10;99.90;;;0.91;84.09;101637.66;4136637;28;20035;-75
2021/01/26 06:14:33;;;;;;;15.43;11.00;;;1.40;99.90;;;0.84;84.92;101641.44;4136520;28;20022;-75
2021/01/26 06:16:34;;;;;;;16.95;11.98;;;1.50;99.90;;;0.97;84.03;101639.13;4136475;28;20026;-75
2021/01/26 06:18:37;;;;;;;16.48;11.38;;;1.50;99.90;;;1.02;84.02;101637.97;4136395;28;20049;-75
2021/01/26 06:20:38;;;;;;;17.35;11.57;;;1.50;99.90;;;0.98;83.99;101643.41;4120036;28;20074;-75
2021/01/26 06:22:40;;;;;;;15.48;11.63;;;1.60;99.90;;;0.74;84.46;101624.63;4120214;28;20102;-74
2021/01/26 06:24:41;;;;;;;14.35;11.23;;;1.50;99.90;;;0.83;85.02;101636.34;4120181;28;20034;-74
2021/01/26 06:27:06;;;;;;;21.23;11.80;;;1.50;99.90;;;0.82;85.07;101635.50;4126489;28;20026;-74
2021/01/26 06:29:36;;;;;;;15.77;10.50;;;1.50;99.90;;;1.08;84.86;101648.06;4120317;28;20031;-75
2021/01/26 06:32:10;;;;;;;13.00;10.90;;;1.60;99.90;;;1.04;85.03;101659.56;4110909;28;20564;-75
2021/01/26 06:34:29;;;;;;;14.45;10.90;;;1.60;99.90;;;1.09;84.96;101656.72;4104805;28;20038;-75
2021/01/26 06:37:08;;;;;;;14.88;10.38;;;1.70;99.90;;;1.00;85.43;101667.53;4121104;28;20470;-75
2021/01/26 06:39:49;;;;;;;13.55;9.63;;;1.70;99.90;;;1.16;84.87;101667.66;4120003;28;20038;-75
2021/01/26 06:42:20;;;;;;;14.43;10.20;;;1.80;99.90;;;1.19;84.47;101675.31;4121148;28;20033;-75
2021/01/26 06:44:44;;;;;;;13.88;10.38;;;1.80;99.90;;;1.26;84.92;101664.53;4119928;28;20026;-75
2021/01/26 06:47:02;;;;;;;16.85;11.13;;;1.80;99.90;;;1.39;84.29;101673.44;4133906;28;20026;-75
2021/01/26 06:49:53;;;;;;;16.67;11.10;;;1.90;99.90;;;1.47;83.64;101665.25;4121309;28;20038;-75
2021/01/26 06:52:35;;;;;;;13.38;10.77;;;2.00;99.90;;;1.50;83.20;101658.13;4093577;28;20039;-74
2021/01/26 06:54:44;;;;;;;12.27;10.15;;;2.10;99.90;;;1.40;83.85;101661.28;4115437;28;20043;-76
2021/01/26 06:57:10;;;;;;;16.63;10.73;;;2.00;99.90;;;1.42;85.37;101667.25;4119886;28;20023;-75
2021/01/26 06:59:46;;;;;;;15.98;11.48;;;2.00;99.90;;;1.51;84.60;101674.59;4121120;28;20034;-75
2021/01/26 07:02:11;;;;;;;14.70;10.70;;;2.10;99.90;;;1.53;84.05;101672.75;4118748;28;20517;-74
2021/01/26 07:04:41;;;;;;;12.18;10.15;;;2.10;99.90;;;1.42;85.52;101672.44;4119906;28;20121;-75
2021/01/26 07:07:22;;;;;;;12.88;10.40;;;2.00;99.90;;;1.59;84.18;101669.84;4079329;28;20094;-75
2021/01/26 07:09:49;;;;;;;15.70;10.82;;;2.10;99.90;;;1.62;84.52;101662.72;4105019;28;20039;-75
2021/01/26 07:12:12;;;;;;;15.13;10.15;;;2.20;99.90;;;1.65;83.78;101664.34;4105002;28;20107;-74
2021/01/26 07:14:52;;;;;;;12.35;9.55;;;2.30;99.90;;;1.66;84.01;101664.28;4104804;28;20034;-75
2021/01/26 07:17:04;;;;;;;14.15;10.30;;;2.30;99.90;;;1.59;84.22;101643.84;4104731;28;20038;-75
2021/01/26 07:19:53;;;;;;;13.70;10.55;;;2.30;99.90;;;1.62;84.83;101665.34;4103502;28;20031;-74
2021/01/26 07:22:13;;;;;;;13.32;10.18;;;2.30;99.90;;;1.78;83.98;101659.38;4091575;28;20047;-74
2021/01/26 07:24:55;;;;;;;13.32;9.70;;;2.30;99.90;;;1.86;84.11;101668.47;4104484;28;20042;-74
2021/01/26 07:27:15;;;;;;;15.10;9.93;;;2.40;99.90;;;1.89;83.24;101662.25;4112379;28;20030;-75
2021/01/26 07:29:37;;;;;;;14.82;10.13;;;2.40;99.90;;;1.97;82.45;101670.53;4120219;28;20082;-74
2021/01/26 07:32:00;;;;;;;12.73;9.55;;;2.50;99.90;;;1.90;82.75;101654.38;4120474;28;20030;-74
2021/01/26 07:34:55;;;;;;;21.13;11.52;;;2.60;99.90;;;2.06;83.00;101655.25;4119281;28;20086;-74
2021/01/26 07:37:13;;;;;;;16.80;12.23;;;2.50;99.90;;;2.08;83.87;101657.81;4111148;28;20038;-74
2021/01/26 07:39:35;;;;;;;15.48;11.10;;;2.50;99.90;;;1.99;82.82;101643.50;4120483;28;20110;-75
2021/01/26 07:41:56;;;;;;;15.13;10.00;;;2.70;99.90;;;2.00;83.65;101645.16;4119157;28;20113;-74
2021/01/26 07:44:45;;;;;;;14.07;10.20;;;2.50;99.90;;;1.76;84.36;101643.00;4120227;28;20517;-75
2021/01/26 07:46:51;;;;;;;12.10;9.60;;;2.60;99.90;;;1.89;84.95;101637.09;4120299;28;20030;-75
2021/01/26 07:49:34;;;;;;;13.80;10.27;;;2.60;99.90;;;2.02;84.71;101627.75;4118914;28;20030;-75
2021/01/26 07:51:46;;;;;;;16.20;10.07;;;2.60;99.90;;;2.06;83.81;101629.25;4104930;28;20039;-75
2021/01/26 07:54:23;;;;;;;11.98;10.25;;;2.70;99.90;;;2.05;83.33;101631.94;4133434;28;20039;-74
2021/01/26 07:56:31;;;;;;;14.30;10.10;;;2.70;99.90;;;2.07;83.60;101641.34;4132690;28;20050;-75
2021/01/26 07:58:32;;;;;;;13.88;9.85;;;2.80;99.90;;;2.06;84.64;101642.25;4119988;28;20076;-74
2021/01/26 08:00:40;;;;;;;15.13;10.18;;;2.80;99.90;;;2.12;83.97;101659.34;4118566;28;20038;-75
2021/01/26 08:02:50;;;;;;;18.88;10.02;;;2.80;99.90;;;2.11;83.86;101653.28;4118934;28;20462;-75
2021/01/26 08:04:52;;;;;;;11.55;9.55;;;2.80;99.90;;;2.18;84.24;101657.22;4119048;28;20533;-75
2021/01/26 08:06:58;;;;;;;16.65;10.10;;;2.90;99.90;;;2.03;84.93;101670.22;4118363;28;20023;-75
2021/01/26 08:08:59;;;;;;;14.43;9.35;;;2.90;99.90;;;2.10;85.59;101671.56;4118597;28;20067;-75
2021/01/26 08:11:21;;;;;;;15.55;9.77;;;2.80;99.90;;;2.12;84.88;101654.94;4134845;28;20073;-75
2021/01/26 08:13:27;;;;;;;14.48;9.45;;;2.90;99.90;;;2.11;84.26;101650.69;4118600;28;20055;-75
2021/01/26 08:15:39;;;;;;;14.77;10.30;;;2.90;99.90;;;2.20;85.09;101647.59;4118693;28;20027;-75
2021/01/26 08:17:41;;;;;;;14.25;10.25;;;2.90;99.90;;;2.28;84.40;101661.94;4134352;28;20034;-75
2021/01/26 08:19:50;;;;;;;15.30;10.25;;;2.50;99.90;;;2.30;84.43;101660.13;4102337;29;20062;-75
2021/01/26 08:21:53;;;;;;;13.32;9.60;;;3.00;99.90;;;2.30;83.91;101662.72;4134150;28;20030;-75
2021/01/26 08:24:33;;;;;;;14.70;9.37;;;3.00;99.90;;;2.49;83.91;101673.84;4118611;28;20105;-75
2021/01/26 08:26:36;;;;;;;13.65;8.43;;;3.10;99.90;;;2.45;84.05;101667.13;4107040;28;20333;-75
2021/01/26 08:28:39;;;;;;;11.60;8.80;;;3.20;99.90;;;2.42;84.62;101662.09;4118595;28;20397;-75
2021/01/26 08:30:48;;;;;;;14.93;8.70;;;3.20;99.90;;;2.55;84.92;101673.50;4118432;28;20023;-74
2021/01/26 08:33:30;;;;;;;13.95;8.82;;;3.20;99.90;;;2.56;83.59;101677.81;4119745;28;20035;-75
2021/01/26 08:35:33;;;;;;;12.00;8.20;;;3.30;99.90;;;2.56;84.41;101691.69;4054356;29;20428;-73
2021/01/26 08:37:43;;;;;;;11.20;8.60;;;3.30;99.90;;;2.64;83.87;101689.50;4100067;28;20045;-73
2021/01/26 08:39:49;;;;;;;10.15;8.00;;;3.40;99.90;;;2.60;84.87;101674.09;4119629;28;20077;-74
2021/01/26 08:41:52;;;;;;;12.05;9.35;;;3.40;99.90;;;2.83;84.70;101689.34;4118630;28;20090;-73
2021/01/26 08:43:53;;;;;;;9.77;8.05;;;3.50;99.90;;;2.91;83.98;101689.75;4110218;28;20063;-73
2021/01/26 08:45:56;;;;;;;12.80;8.38;;;3.60;99.90;;;2.90;83.86;101695.88;4117454;28;20511;-74
2021/01/26 08:48:20;;;;;;;14.30;8.20;;;3.60;99.90;;;2.93;83.32;101684.47;4105652;28;20530;-74
2021/01/26 08:50:51;;;;;;;11.13;7.85;;;3.70;99.90;;;3.05;83.29;101689.00;4105631;28;20534;-74
2021/01/26 08:53:13;;;;;;;10.48;7.80;;;3.70;99.90;;;3.02;82.67;101674.38;4118228;28;20027;-74
2021/01/26 08:55:40;;;;;;;12.82;8.27;;;3.80;99.90;;;3.01;82.93;101662.28;4122453;28;20121;-74
2021/01/26 08:57:43;;;;;;;12.45;8.68;;;3.70;99.90;;;3.05;83.79;101668.97;4113021;28;20129;-73
2021/01/26 08:59:44;;;;;;;13.30;8.88;;;3.90;99.90;;;3.15;83.12;101675.38;4121346;28;20110;-74
2021/01/26 09:01:47;;;;;;;12.48;9.45;;;3.90;99.90;;;3.26;83.51;101674.75;4137355;28;20034;-74
2021/01/26 09:04:15;;;;;;;13.57;9.95;;;4.00;99.90;;;3.18;83.85;101663.94;4122356;28;20027;-75
2021/01/26 09:06:38;;;;;;;12.18;8.40;;;4.00;99.90;;;3.28;83.80;101671.16;4106331;28;20041;-75
2021/01/26 09:08:42;;;;;;;9.73;7.45;;;4.10;99.90;;;3.42;83.13;101690.38;4108852;28;20105;-75
2021/01/26 09:10:53;;;;;;;12.70;8.90;;;4.10;99.90;;;3.47;83.75;101694.41;4121792;28;20490;-74